sensor_id;sensor_type;location;lat;lon;timestamp;pressure;altitude;pressure_sealevel;temperature;humidity
40908;BME280;51055;59.436;24.778;2023-02-08T20:12:20;103105.16;;;2.62;100.00
40908;BME280;51055;59.436;24.778;2023-02-08T20:14:48;103091.28;;;2.54;100.00
40908;BME280;51055;59.436;24.778;2023-02-08T20:17:16;103088.59;;;2.60;100.00
40908;BME280;51055;59.436;24.778;2023-02-08T20:19:46;103080.69;;;2.67;100.00
40908;BME280;51055;59.436;24.778;2023-02-08T20:22:14;103077.22;;;2.65;100.00
40908;BME280;51055;59.436;24.778;2023-02-08T20:24:42;103073.72;;;2.64;100.00
40908;BME280;51055;59.436;24.778;2023-02-08T20:27:10;103061.47;;;2.66;100.00
40908;BME280;51055;59.436;24.778;2023-02-08T20:29:45;103071.97;;;2.65;100.00
40908;BME280;51055;59.436;24.778;2023-02-08T20:32:14;103064.97;;;2.65;100.00
40908;BME280;51055;59.436;24.778;2023-02-08T20:34:42;103061.56;;;2.58;100.00
40908;BME280;51055;59.436;24.778;2023-02-08T20:37:25;103057.19;;;2.57;100.00
40908;BME280;51055;59.436;24.778;2023-02-08T20:39:53;103063.28;;;2.59;100.00
40908;BME280;51055;59.436;24.778;2023-02-08T20:42:21;103065.00;;;2.62;100.00
40908;BME280;51055;59.436;24.778;2023-02-08T20:44:49;103055.38;;;2.62;100.00
40908;BME280;51055;59.436;24.778;2023-02-08T20:47:16;103051.03;;;2.63;100.00
40908;BME280;51055;59.436;24.778;2023-02-08T20:49:46;103060.56;;;2.69;100.00
40908;BME280;51055;59.436;24.778;2023-02-08T20:52:14;103052.72;;;2.67;100.00
40908;BME280;51055;59.436;24.778;2023-02-08T20:54:42;103050.97;;;2.69;100.00
40908;BME280;51055;59.436;24.778;2023-02-08T20:57:10;103055.38;;;2.62;100.00
40908;BME280;51055;59.436;24.778;2023-02-08T20:59:40;103050.13;;;2.66;100.00
40908;BME280;51055;59.436;24.778;2023-02-08T21:02:19;103052.72;;;2.66;100.00
40908;BME280;51055;59.436;24.778;2023-02-08T21:04:48;103045.75;;;2.66;100.00
40908;BME280;51055;59.436;24.778;2023-02-08T21:07:16;103037.94;;;2.60;100.00
40908;BME280;51055;59.436;24.778;2023-02-08T21:09:44;103037.03;;;2.64;100.00
40908;BME280;51055;59.436;24.778;2023-02-08T21:12:12;103040.56;;;2.61;100.00
40908;BME280;51055;59.436;24.778;2023-02-08T21:14:39;103033.56;;;2.62;100.00
40908;BME280;51055;59.436;24.778;2023-02-08T21:17:09;103039.66;;;2.62;100.00
40908;BME280;51055;59.436;24.778;2023-02-08T21:19:38;103040.59;;;2.58;100.00
40908;BME280;51055;59.436;24.778;2023-02-08T21:22:06;103042.28;;;2.62;100.00
40908;BME280;51055;59.436;24.778;2023-02-08T21:24:34;103035.31;;;2.63;100.00
40908;BME280;51055;59.436;24.778;2023-02-08T21:27:02;103040.53;;;2.65;100.00
40908;BME280;51055;59.436;24.778;2023-02-08T21:29:30;103037.00;;;2.67;100.00
40908;BME280;51055;59.436;24.778;2023-02-08T21:31:58;103027.41;;;2.68;100.00
40908;BME280;51055;59.436;24.778;2023-02-08T21:34:26;103035.25;;;2.68;100.00
40908;BME280;51055;59.436;24.778;2023-02-08T21:36:54;103033.53;;;2.68;100.00
40908;BME280;51055;59.436;24.778;2023-02-08T21:39:23;103031.81;;;2.64;100.00
40908;BME280;51055;59.436;24.778;2023-02-08T21:41:51;103030.09;;;2.61;100.00
40908;BME280;51055;59.436;24.778;2023-02-08T21:44:19;103037.88;;;2.66;100.00
40908;BME280;51055;59.436;24.778;2023-02-08T21:46:46;103032.66;;;2.66;100.00
40908;BME280;51055;59.436;24.778;2023-02-08T21:49:14;103033.53;;;2.67;100.00
40908;BME280;51055;59.436;24.778;2023-02-08T21:52:01;103019.59;;;2.65;100.00
40908;BME280;51055;59.436;24.778;2023-02-08T21:54:46;103022.16;;;2.68;100.00
40908;BME280;51055;59.436;24.778;2023-02-08T21:57:22;103007.31;;;2.67;100.00
40908;BME280;51055;59.436;24.778;2023-02-08T21:59:55;103009.94;;;2.68;100.00
40908;BME280;51055;59.436;24.778;2023-02-08T22:02:28;103001.16;;;2.69;100.00
40908;BME280;51055;59.436;24.778;2023-02-08T22:04:58;102994.22;;;2.67;100.00
40908;BME280;51055;59.436;24.778;2023-02-08T22:07:26;102985.53;;;2.63;100.00
40908;BME280;51055;59.436;24.778;2023-02-08T22:09:54;102984.63;;;2.67;100.00
40908;BME280;51055;59.436;24.778;2023-02-08T22:12:22;102975.00;;;2.66;100.00
40908;BME280;51055;59.436;24.778;2023-02-08T22:14:50;102967.16;;;2.66;100.00
40908;BME280;51055;59.436;24.778;2023-02-08T22:17:17;102966.31;;;2.64;100.00
40908;BME280;51055;59.436;24.778;2023-02-08T22:19:46;102974.13;;;2.66;100.00
40908;BME280;51055;59.436;24.778;2023-02-08T22:22:14;102972.38;;;2.66;100.00
40908;BME280;51055;59.436;24.778;2023-02-08T22:24:41;102971.50;;;2.67;100.00
40908;BME280;51055;59.436;24.778;2023-02-08T22:27:10;102957.53;;;2.67;100.00
40908;BME280;51055;59.436;24.778;2023-02-08T22:29:38;102961.00;;;2.69;100.00
40908;BME280;51055;59.436;24.778;2023-02-08T22:32:05;102954.88;;;2.70;100.00
40908;BME280;51055;59.436;24.778;2023-02-08T22:34:37;102956.66;;;2.68;100.00
40908;BME280;51055;59.436;24.778;2023-02-08T22:37:05;102946.16;;;2.71;100.00
40908;BME280;51055;59.436;24.778;2023-02-08T22:39:32;102942.66;;;2.70;100.00
40908;BME280;51055;59.436;24.778;2023-02-08T22:42:03;102943.53;;;2.69;100.00
40908;BME280;51055;59.436;24.778;2023-02-08T22:44:35;102942.69;;;2.67;100.00
40908;BME280;51055;59.436;24.778;2023-02-08T22:47:04;102936.53;;;2.70;100.00
40908;BME280;51055;59.436;24.778;2023-02-08T22:49:36;102939.13;;;2.74;100.00
40908;BME280;51055;59.436;24.778;2023-02-08T22:52:05;102949.59;;;2.73;100.00
40908;BME280;51055;59.436;24.778;2023-02-08T22:54:34;102946.16;;;2.71;100.00
40908;BME280;51055;59.436;24.778;2023-02-08T22:57:03;102940.91;;;2.71;100.00
40908;BME280;51055;59.436;24.778;2023-02-08T22:59:32;102937.41;;;2.70;100.00
40908;BME280;51055;59.436;24.778;2023-02-08T23:02:00;102945.25;;;2.72;100.00
40908;BME280;51055;59.436;24.778;2023-02-08T23:04:28;102938.31;;;2.68;100.00
40908;BME280;51055;59.436;24.778;2023-02-08T23:06:57;102934.78;;;2.69;100.00
40908;BME280;51055;59.436;24.778;2023-02-08T23:09:25;102919.97;;;2.68;100.00
40908;BME280;51055;59.436;24.778;2023-02-08T23:11:53;102907.75;;;2.67;100.00
40908;BME280;51055;59.436;24.778;2023-02-08T23:14:21;102906.06;;;2.62;100.00
40908;BME280;51055;59.436;24.778;2023-02-08T23:16:48;102903.44;;;2.64;100.00
40908;BME280;51055;59.436;24.778;2023-02-08T23:19:17;102895.53;;;2.66;100.00
40908;BME280;51055;59.436;24.778;2023-02-08T23:21:45;102890.31;;;2.62;100.00
40908;BME280;51055;59.436;24.778;2023-02-08T23:24:13;102890.38;;;2.59;100.00
40908;BME280;51055;59.436;24.778;2023-02-08T23:26:40;102891.25;;;2.61;100.00
40908;BME280;51055;59.436;24.778;2023-02-08T23:29:08;102892.06;;;2.62;100.00
40908;BME280;51055;59.436;24.778;2023-02-08T23:31:38;102885.09;;;2.62;100.00
40908;BME280;51055;59.436;24.778;2023-02-08T23:34:07;102881.63;;;2.60;100.00
40908;BME280;51055;59.436;24.778;2023-02-08T23:36:34;102880.75;;;2.60;100.00
40908;BME280;51055;59.436;24.778;2023-02-08T23:39:03;102876.34;;;2.62;100.00
40908;BME280;51055;59.436;24.778;2023-02-08T23:41:32;102871.16;;;2.59;100.00
40908;BME280;51055;59.436;24.778;2023-02-08T23:44:00;102867.75;;;2.54;100.00
40908;BME280;51055;59.436;24.778;2023-02-08T23:46:28;102857.28;;;2.52;100.00
40908;BME280;51055;59.436;24.778;2023-02-08T23:48:56;102849.38;;;2.57;100.00
40908;BME280;51055;59.436;24.778;2023-02-08T23:51:25;102862.50;;;2.54;100.00
40908;BME280;51055;59.436;24.778;2023-02-08T23:53:53;102856.44;;;2.50;100.00
40908;BME280;51055;59.436;24.778;2023-02-08T23:56:24;102867.78;;;2.49;100.00
40908;BME280;51055;59.436;24.778;2023-02-08T23:58:54;102844.22;;;2.49;100.00
